sensor_id;sensor_type;location;lat;lon;timestamp;temperature;humidity
28947;DHT22;16052;50.930;5.326;2022-07-06T00:01:20;18.00;1.00
28947;DHT22;16052;50.930;5.326;2022-07-06T00:03:46;18.00;1.00
28947;DHT22;16052;50.930;5.326;2022-07-06T00:06:11;18.00;1.00
28947;DHT22;16052;50.930;5.326;2022-07-06T00:08:38;17.90;1.00
28947;DHT22;16052;50.930;5.326;2022-07-06T00:11:04;17.90;1.00
28947;DHT22;16052;50.930;5.326;2022-07-06T00:13:29;18.00;1.00
28947;DHT22;16052;50.930;5.326;2022-07-06T00:15:55;18.10;1.00
28947;DHT22;16052;50.930;5.326;2022-07-06T00:18:21;18.00;1.00
28947;DHT22;16052;50.930;5.326;2022-07-06T00:20:46;17.90;1.00
28947;DHT22;16052;50.930;5.326;2022-07-06T00:23:12;17.90;1.00
28947;DHT22;16052;50.930;5.326;2022-07-06T00:25:38;17.80;1.00
28947;DHT22;16052;50.930;5.326;2022-07-06T00:28:03;17.70;1.00
28947;DHT22;16052;50.930;5.326;2022-07-06T00:30:29;17.70;1.00
28947;DHT22;16052;50.930;5.326;2022-07-06T00:32:55;17.60;1.00
28947;DHT22;16052;50.930;5.326;2022-07-06T00:35:21;17.70;1.00
28947;DHT22;16052;50.930;5.326;2022-07-06T00:37:46;17.70;1.00
28947;DHT22;16052;50.930;5.326;2022-07-06T00:40:12;17.60;1.00
28947;DHT22;16052;50.930;5.326;2022-07-06T00:42:46;18.00;1.00
28947;DHT22;16052;50.930;5.326;2022-07-06T00:45:13;18.10;1.00
28947;DHT22;16052;50.930;5.326;2022-07-06T00:47:40;17.90;1.00
28947;DHT22;16052;50.930;5.326;2022-07-06T00:50:08;17.70;1.00
28947;DHT22;16052;50.930;5.326;2022-07-06T00:52:47;17.70;1.00
28947;DHT22;16052;50.930;5.326;2022-07-06T00:55:15;17.60;1.00
28947;DHT22;16052;50.930;5.326;2022-07-06T00:57:42;17.50;1.00
28947;DHT22;16052;50.930;5.326;2022-07-06T01:00:13;17.30;1.00
28947;DHT22;16052;50.930;5.326;2022-07-06T01:02:39;17.30;1.00
28947;DHT22;16052;50.930;5.326;2022-07-06T01:05:07;17.20;1.00
28947;DHT22;16052;50.930;5.326;2022-07-06T01:07:33;17.20;1.00
28947;DHT22;16052;50.930;5.326;2022-07-06T01:09:59;17.40;1.00
28947;DHT22;16052;50.930;5.326;2022-07-06T01:12:25;17.40;1.00
28947;DHT22;16052;50.930;5.326;2022-07-06T01:14:51;17.30;1.00
28947;DHT22;16052;50.930;5.326;2022-07-06T01:17:20;17.40;1.00
28947;DHT22;16052;50.930;5.326;2022-07-06T01:19:46;17.30;1.00
28947;DHT22;16052;50.930;5.326;2022-07-06T01:22:12;17.30;1.00
28947;DHT22;16052;50.930;5.326;2022-07-06T01:24:38;17.40;1.00
28947;DHT22;16052;50.930;5.326;2022-07-06T01:27:05;17.50;1.00
28947;DHT22;16052;50.930;5.326;2022-07-06T01:29:34;17.40;1.00
28947;DHT22;16052;50.930;5.326;2022-07-06T01:32:01;17.50;1.00
28947;DHT22;16052;50.930;5.326;2022-07-06T01:34:27;17.50;1.00
28947;DHT22;16052;50.930;5.326;2022-07-06T01:36:53;17.40;1.00
28947;DHT22;16052;50.930;5.326;2022-07-06T01:39:19;17.40;1.00
28947;DHT22;16052;50.930;5.326;2022-07-06T01:41:44;17.40;1.00
28947;DHT22;16052;50.930;5.326;2022-07-06T01:44:10;17.40;1.00
28947;DHT22;16052;50.930;5.326;2022-07-06T01:46:36;17.50;1.00
28947;DHT22;16052;50.930;5.326;2022-07-06T01:49:03;17.50;1.00
28947;DHT22;16052;50.930;5.326;2022-07-06T01:51:29;17.60;1.00
28947;DHT22;16052;50.930;5.326;2022-07-06T01:53:54;17.40;1.00
28947;DHT22;16052;50.930;5.326;2022-07-06T01:56:20;17.30;1.00
28947;DHT22;16052;50.930;5.326;2022-07-06T01:58:46;17.20;1.00
28947;DHT22;16052;50.930;5.326;2022-07-06T02:01:16;17.10;1.00
28947;DHT22;16052;50.930;5.326;2022-07-06T02:03:42;17.00;1.00
28947;DHT22;16052;50.930;5.326;2022-07-06T02:06:08;16.80;4.40
28947;DHT22;16052;50.930;5.326;2022-07-06T02:08:35;16.60;9.30
28947;DHT22;16052;50.930;5.326;2022-07-06T02:11:02;16.50;12.00
28947;DHT22;16052;50.930;5.326;2022-07-06T02:13:28;16.50;13.40
28947;DHT22;16052;50.930;5.326;2022-07-06T02:15:54;16.40;14.00
28947;DHT22;16052;50.930;5.326;2022-07-06T02:18:20;16.40;14.20
28947;DHT22;16052;50.930;5.326;2022-07-06T02:20:45;16.40;14.10
28947;DHT22;16052;50.930;5.326;2022-07-06T02:23:11;16.40;14.40
28947;DHT22;16052;50.930;5.326;2022-07-06T02:25:37;16.40;13.70
28947;DHT22;16052;50.930;5.326;2022-07-06T02:28:03;16.40;13.10
28947;DHT22;16052;50.930;5.326;2022-07-06T02:30:28;16.50;12.00
28947;DHT22;16052;50.930;5.326;2022-07-06T02:32:54;16.40;15.90
28947;DHT22;16052;50.930;5.326;2022-07-06T02:35:20;16.60;11.40
28947;DHT22;16052;50.930;5.326;2022-07-06T02:37:46;16.70;9.20
28947;DHT22;16052;50.930;5.326;2022-07-06T02:40:12;16.70;10.00
28947;DHT22;16052;50.930;5.326;2022-07-06T02:42:38;16.60;9.90
28947;DHT22;16052;50.930;5.326;2022-07-06T02:45:05;16.70;9.60
28947;DHT22;16052;50.930;5.326;2022-07-06T02:47:30;16.60;9.90
28947;DHT22;16052;50.930;5.326;2022-07-06T02:49:56;16.60;10.50
28947;DHT22;16052;50.930;5.326;2022-07-06T02:52:22;16.60;11.40
28947;DHT22;16052;50.930;5.326;2022-07-06T02:54:48;16.50;10.50
28947;DHT22;16052;50.930;5.326;2022-07-06T02:57:15;16.50;12.00
28947;DHT22;16052;50.930;5.326;2022-07-06T02:59:41;16.60;8.20
28947;DHT22;16052;50.930;5.326;2022-07-06T03:02:07;16.80;5.40
28947;DHT22;16052;50.930;5.326;2022-07-06T03:04:33;16.80;4.00
28947;DHT22;16052;50.930;5.326;2022-07-06T03:06:59;16.90;1.60
28947;DHT22;16052;50.930;5.326;2022-07-06T03:09:25;16.80;2.90
28947;DHT22;16052;50.930;5.326;2022-07-06T03:11:51;16.60;4.80
28947;DHT22;16052;50.930;5.326;2022-07-06T03:14:17;16.50;8.30
28947;DHT22;16052;50.930;5.326;2022-07-06T03:16:43;16.70;5.70
28947;DHT22;16052;50.930;5.326;2022-07-06T03:19:09;16.70;4.10
28947;DHT22;16052;50.930;5.326;2022-07-06T03:21:35;16.80;1.90
28947;DHT22;16052;50.930;5.326;2022-07-06T03:24:00;16.70;4.50
28947;DHT22;16052;50.930;5.326;2022-07-06T03:26:26;16.60;4.90
28947;DHT22;16052;50.930;5.326;2022-07-06T03:28:52;16.50;6.60
28947;DHT22;16052;50.930;5.326;2022-07-06T03:31:18;16.40;10.50
28947;DHT22;16052;50.930;5.326;2022-07-06T03:33:43;16.30;14.30
28947;DHT22;16052;50.930;5.326;2022-07-06T03:36:09;16.50;11.90
28947;DHT22;16052;50.930;5.326;2022-07-06T03:38:35;16.50;10.10
28947;DHT22;16052;50.930;5.326;2022-07-06T03:41:02;16.30;12.10
28947;DHT22;16052;50.930;5.326;2022-07-06T03:43:28;16.20;13.80
28947;DHT22;16052;50.930;5.326;2022-07-06T03:45:53;16.20;14.20
28947;DHT22;16052;50.930;5.326;2022-07-06T03:48:19;16.30;14.00
28947;DHT22;16052;50.930;5.326;2022-07-06T03:50:44;16.10;15.60
28947;DHT22;16052;50.930;5.326;2022-07-06T03:53:10;16.20;14.20
28947;DHT22;16052;50.930;5.326;2022-07-06T03:55:36;16.20;14.90
28947;DHT22;16052;50.930;5.326;2022-07-06T03:58:01;16.30;11.60
28947;DHT22;16052;50.930;5.326;2022-07-06T04:00:27;16.40;9.80
28947;DHT22;16052;50.930;5.326;2022-07-06T04:02:53;16.50;10.40
28947;DHT22;16052;50.930;5.326;2022-07-06T04:05:19;16.60;5.70
28947;DHT22;16052;50.930;5.326;2022-07-06T04:07:47;16.80;1.00
28947;DHT22;16052;50.930;5.326;2022-07-06T04:10:14;16.70;1.00
28947;DHT22;16052;50.930;5.326;2022-07-06T04:12:43;16.30;11.00
28947;DHT22;16052;50.930;5.326;2022-07-06T04:15:10;16.10;16.00
28947;DHT22;16052;50.930;5.326;2022-07-06T04:17:36;16.20;15.70
28947;DHT22;16052;50.930;5.326;2022-07-06T04:20:18;16.40;11.20
28947;DHT22;16052;50.930;5.326;2022-07-06T04:22:44;16.50;10.10
28947;DHT22;16052;50.930;5.326;2022-07-06T04:25:09;16.50;9.70
28947;DHT22;16052;50.930;5.326;2022-07-06T04:27:35;16.60;6.60
28947;DHT22;16052;50.930;5.326;2022-07-06T04:30:04;16.40;12.50
28947;DHT22;16052;50.930;5.326;2022-07-06T04:32:30;16.30;13.80
28947;DHT22;16052;50.930;5.326;2022-07-06T04:34:55;16.30;15.40
28947;DHT22;16052;50.930;5.326;2022-07-06T04:37:21;16.20;17.80
28947;DHT22;16052;50.930;5.326;2022-07-06T04:39:47;16.10;20.00
28947;DHT22;16052;50.930;5.326;2022-07-06T04:42:12;16.20;19.80
28947;DHT22;16052;50.930;5.326;2022-07-06T04:44:38;16.20;20.20
28947;DHT22;16052;50.930;5.326;2022-07-06T04:47:03;16.40;15.30
28947;DHT22;16052;50.930;5.326;2022-07-06T04:49:29;16.40;15.10
28947;DHT22;16052;50.930;5.326;2022-07-06T04:51:55;16.20;20.30
28947;DHT22;16052;50.930;5.326;2022-07-06T04:54:20;16.10;24.30
28947;DHT22;16052;50.930;5.326;2022-07-06T04:56:46;16.40;18.10
28947;DHT22;16052;50.930;5.326;2022-07-06T04:59:12;16.50;16.50
28947;DHT22;16052;50.930;5.326;2022-07-06T05:01:38;16.80;14.70
28947;DHT22;16052;50.930;5.326;2022-07-06T05:04:04;17.10;7.40
28947;DHT22;16052;50.930;5.326;2022-07-06T05:06:29;17.10;5.90
28947;DHT22;16052;50.930;5.326;2022-07-06T05:08:55;17.00;8.40
28947;DHT22;16052;50.930;5.326;2022-07-06T05:11:21;17.00;11.50
28947;DHT22;16052;50.930;5.326;2022-07-06T05:13:46;17.20;3.70
28947;DHT22;16052;50.930;5.326;2022-07-06T05:16:12;17.10;4.20
28947;DHT22;16052;50.930;5.326;2022-07-06T05:18:38;17.00;8.70
28947;DHT22;16052;50.930;5.326;2022-07-06T05:21:03;16.90;11.50
28947;DHT22;16052;50.930;5.326;2022-07-06T05:23:29;17.10;8.20
28947;DHT22;16052;50.930;5.326;2022-07-06T05:25:54;17.20;8.20
28947;DHT22;16052;50.930;5.326;2022-07-06T05:28:20;17.10;10.00
28947;DHT22;16052;50.930;5.326;2022-07-06T05:30:46;17.10;13.00
28947;DHT22;16052;50.930;5.326;2022-07-06T05:33:11;17.30;10.80
28947;DHT22;16052;50.930;5.326;2022-07-06T05:35:37;17.50;4.70
28947;DHT22;16052;50.930;5.326;2022-07-06T05:38:03;17.60;1.00
28947;DHT22;16052;50.930;5.326;2022-07-06T05:40:28;17.80;1.00
28947;DHT22;16052;50.930;5.326;2022-07-06T05:42:54;17.90;1.00
28947;DHT22;16052;50.930;5.326;2022-07-06T05:45:20;18.00;1.00
28947;DHT22;16052;50.930;5.326;2022-07-06T05:47:45;18.10;1.00
28947;DHT22;16052;50.930;5.326;2022-07-06T05:50:30;18.20;1.00
28947;DHT22;16052;50.930;5.326;2022-07-06T05:52:57;18.00;1.00
28947;DHT22;16052;50.930;5.326;2022-07-06T05:55:23;18.00;1.00
28947;DHT22;16052;50.930;5.326;2022-07-06T05:57:49;18.10;1.00
28947;DHT22;16052;50.930;5.326;2022-07-06T06:00:16;18.10;1.00
28947;DHT22;16052;50.930;5.326;2022-07-06T06:02:42;18.30;1.00
28947;DHT22;16052;50.930;5.326;2022-07-06T06:05:09;18.30;1.00
28947;DHT22;16052;50.930;5.326;2022-07-06T06:07:36;18.30;1.00
28947;DHT22;16052;50.930;5.326;2022-07-06T06:10:10;18.10;1.00
28947;DHT22;16052;50.930;5.326;2022-07-06T06:12:37;18.10;1.00
28947;DHT22;16052;50.930;5.326;2022-07-06T06:15:03;18.00;1.00
28947;DHT22;16052;50.930;5.326;2022-07-06T06:17:30;17.90;1.00
28947;DHT22;16052;50.930;5.326;2022-07-06T06:19:56;17.70;1.00
28947;DHT22;16052;50.930;5.326;2022-07-06T06:22:22;17.70;1.00
28947;DHT22;16052;50.930;5.326;2022-07-06T06:24:47;17.90;1.00
28947;DHT22;16052;50.930;5.326;2022-07-06T06:27:13;17.90;1.00
28947;DHT22;16052;50.930;5.326;2022-07-06T06:29:39;17.70;9.60
28947;DHT22;16052;50.930;5.326;2022-07-06T06:32:08;17.70;10.90
28947;DHT22;16052;50.930;5.326;2022-07-06T06:34:34;17.80;9.70
28947;DHT22;16052;50.930;5.326;2022-07-06T06:36:59;17.90;9.10
28947;DHT22;16052;50.930;5.326;2022-07-06T06:39:25;18.00;9.60
28947;DHT22;16052;50.930;5.326;2022-07-06T06:41:53;17.90;9.00
28947;DHT22;16052;50.930;5.326;2022-07-06T06:44:18;18.00;7.30
28947;DHT22;16052;50.930;5.326;2022-07-06T06:46:44;18.00;6.80
28947;DHT22;16052;50.930;5.326;2022-07-06T06:49:11;18.00;6.10
28947;DHT22;16052;50.930;5.326;2022-07-06T06:51:36;18.00;4.70
28947;DHT22;16052;50.930;5.326;2022-07-06T06:54:06;18.00;2.20
28947;DHT22;16052;50.930;5.326;2022-07-06T06:56:32;18.10;1.00
28947;DHT22;16052;50.930;5.326;2022-07-06T06:58:57;18.30;1.00
28947;DHT22;16052;50.930;5.326;2022-07-06T07:01:24;18.30;1.00
28947;DHT22;16052;50.930;5.326;2022-07-06T07:03:51;18.40;1.00
28947;DHT22;16052;50.930;5.326;2022-07-06T07:06:17;18.40;1.00
28947;DHT22;16052;50.930;5.326;2022-07-06T07:08:43;18.30;1.00
28947;DHT22;16052;50.930;5.326;2022-07-06T07:11:11;18.40;1.00
28947;DHT22;16052;50.930;5.326;2022-07-06T07:13:37;18.40;1.00
28947;DHT22;16052;50.930;5.326;2022-07-06T07:16:03;18.40;1.00
28947;DHT22;16052;50.930;5.326;2022-07-06T07:18:29;18.40;1.00
28947;DHT22;16052;50.930;5.326;2022-07-06T07:20:55;18.40;1.00
28947;DHT22;16052;50.930;5.326;2022-07-06T07:23:20;18.30;1.00
28947;DHT22;16052;50.930;5.326;2022-07-06T07:25:46;18.30;1.00
28947;DHT22;16052;50.930;5.326;2022-07-06T07:28:11;18.10;1.00
28947;DHT22;16052;50.930;5.326;2022-07-06T07:30:37;18.00;1.00
28947;DHT22;16052;50.930;5.326;2022-07-06T07:33:03;17.90;1.00
28947;DHT22;16052;50.930;5.326;2022-07-06T07:35:29;18.00;1.00
28947;DHT22;16052;50.930;5.326;2022-07-06T07:37:55;18.10;1.00
28947;DHT22;16052;50.930;5.326;2022-07-06T07:40:20;18.20;1.00
28947;DHT22;16052;50.930;5.326;2022-07-06T07:42:47;18.40;1.00
28947;DHT22;16052;50.930;5.326;2022-07-06T07:45:12;18.50;1.00
28947;DHT22;16052;50.930;5.326;2022-07-06T07:47:39;18.50;1.00
28947;DHT22;16052;50.930;5.326;2022-07-06T07:50:06;18.30;1.00
28947;DHT22;16052;50.930;5.326;2022-07-06T07:52:32;18.40;1.00
28947;DHT22;16052;50.930;5.326;2022-07-06T07:54:58;18.60;1.00
28947;DHT22;16052;50.930;5.326;2022-07-06T07:57:24;18.70;1.00
28947;DHT22;16052;50.930;5.326;2022-07-06T07:59:49;19.00;1.00
28947;DHT22;16052;50.930;5.326;2022-07-06T08:02:15;18.90;1.00
28947;DHT22;16052;50.930;5.326;2022-07-06T08:04:41;19.00;1.00
28947;DHT22;16052;50.930;5.326;2022-07-06T08:07:07;18.80;1.00
28947;DHT22;16052;50.930;5.326;2022-07-06T08:09:34;19.00;1.00
28947;DHT22;16052;50.930;5.326;2022-07-06T08:12:05;18.90;1.00
28947;DHT22;16052;50.930;5.326;2022-07-06T08:14:31;19.00;1.00
28947;DHT22;16052;50.930;5.326;2022-07-06T08:16:57;19.10;1.00
28947;DHT22;16052;50.930;5.326;2022-07-06T08:19:23;19.30;1.00
28947;DHT22;16052;50.930;5.326;2022-07-06T08:21:49;19.40;1.00
28947;DHT22;16052;50.930;5.326;2022-07-06T08:24:14;19.40;1.00
28947;DHT22;16052;50.930;5.326;2022-07-06T08:26:40;19.50;1.00
28947;DHT22;16052;50.930;5.326;2022-07-06T08:29:06;19.60;1.00
28947;DHT22;16052;50.930;5.326;2022-07-06T08:31:32;19.70;1.00
28947;DHT22;16052;50.930;5.326;2022-07-06T08:34:00;19.70;1.00
28947;DHT22;16052;50.930;5.326;2022-07-06T08:36:26;19.70;1.00
28947;DHT22;16052;50.930;5.326;2022-07-06T08:38:52;19.40;1.00
28947;DHT22;16052;50.930;5.326;2022-07-06T08:41:21;19.20;1.00
28947;DHT22;16052;50.930;5.326;2022-07-06T08:43:49;19.30;1.00
28947;DHT22;16052;50.930;5.326;2022-07-06T08:46:16;19.50;1.00
28947;DHT22;16052;50.930;5.326;2022-07-06T08:48:41;19.60;1.00
28947;DHT22;16052;50.930;5.326;2022-07-06T08:51:08;19.70;1.00
28947;DHT22;16052;50.930;5.326;2022-07-06T08:53:34;19.70;1.00
28947;DHT22;16052;50.930;5.326;2022-07-06T08:56:01;19.80;1.00
28947;DHT22;16052;50.930;5.326;2022-07-06T08:58:27;19.70;1.00
28947;DHT22;16052;50.930;5.326;2022-07-06T09:00:54;19.80;1.00
28947;DHT22;16052;50.930;5.326;2022-07-06T09:03:20;20.00;1.00
28947;DHT22;16052;50.930;5.326;2022-07-06T09:05:47;20.30;1.00
28947;DHT22;16052;50.930;5.326;2022-07-06T09:08:13;20.30;99.90
28947;DHT22;16052;50.930;5.326;2022-07-06T09:10:40;20.20;99.90
28947;DHT22;16052;50.930;5.326;2022-07-06T09:13:07;20.20;99.90
28947;DHT22;16052;50.930;5.326;2022-07-06T09:15:34;20.40;99.90
28947;DHT22;16052;50.930;5.326;2022-07-06T09:18:00;20.40;99.90
28947;DHT22;16052;50.930;5.326;2022-07-06T09:20:29;20.40;99.90
28947;DHT22;16052;50.930;5.326;2022-07-06T09:23:03;20.30;99.90
28947;DHT22;16052;50.930;5.326;2022-07-06T09:25:31;20.30;99.90
28947;DHT22;16052;50.930;5.326;2022-07-06T09:27:58;20.40;99.90
28947;DHT22;16052;50.930;5.326;2022-07-06T09:30:25;20.40;99.90
28947;DHT22;16052;50.930;5.326;2022-07-06T09:32:54;20.60;99.90
28947;DHT22;16052;50.930;5.326;2022-07-06T09:37:46;20.80;99.90
28947;DHT22;16052;50.930;5.326;2022-07-06T09:40:17;20.90;99.90
28947;DHT22;16052;50.930;5.326;2022-07-06T09:42:44;21.00;99.90
28947;DHT22;16052;50.930;5.326;2022-07-06T09:45:10;21.00;99.90
28947;DHT22;16052;50.930;5.326;2022-07-06T09:47:36;21.10;99.90
28947;DHT22;16052;50.930;5.326;2022-07-06T09:50:05;21.00;99.90
28947;DHT22;16052;50.930;5.326;2022-07-06T09:52:35;21.10;99.90
28947;DHT22;16052;50.930;5.326;2022-07-06T09:55:05;21.30;99.90
28947;DHT22;16052;50.930;5.326;2022-07-06T09:57:30;21.10;99.90
28947;DHT22;16052;50.930;5.326;2022-07-06T09:59:58;21.00;99.90
28947;DHT22;16052;50.930;5.326;2022-07-06T10:02:24;21.10;99.90
28947;DHT22;16052;50.930;5.326;2022-07-06T10:04:54;21.20;99.90
28947;DHT22;16052;50.930;5.326;2022-07-06T10:07:23;21.40;99.90
28947;DHT22;16052;50.930;5.326;2022-07-06T10:09:50;21.40;99.90
28947;DHT22;16052;50.930;5.326;2022-07-06T10:12:17;21.50;99.90
28947;DHT22;16052;50.930;5.326;2022-07-06T10:14:44;21.60;99.90
28947;DHT22;16052;50.930;5.326;2022-07-06T10:17:11;21.80;99.90
28947;DHT22;16052;50.930;5.326;2022-07-06T10:19:38;21.90;99.90
28947;DHT22;16052;50.930;5.326;2022-07-06T10:22:05;22.00;99.90
28947;DHT22;16052;50.930;5.326;2022-07-06T10:24:31;22.00;41.80
28947;DHT22;16052;50.930;5.326;2022-07-06T10:26:59;21.70;13.90
28947;DHT22;16052;50.930;5.326;2022-07-06T10:29:25;21.40;95.90
28947;DHT22;16052;50.930;5.326;2022-07-06T10:31:52;21.40;99.90
28947;DHT22;16052;50.930;5.326;2022-07-06T10:34:19;21.30;99.90
28947;DHT22;16052;50.930;5.326;2022-07-06T10:36:50;21.40;99.90
28947;DHT22;16052;50.930;5.326;2022-07-06T10:39:16;21.40;99.90
28947;DHT22;16052;50.930;5.326;2022-07-06T10:42:00;21.10;99.90
28947;DHT22;16052;50.930;5.326;2022-07-06T10:44:27;20.80;99.90
28947;DHT22;16052;50.930;5.326;2022-07-06T10:46:57;20.60;99.90
28947;DHT22;16052;50.930;5.326;2022-07-06T10:49:25;20.60;99.90
28947;DHT22;16052;50.930;5.326;2022-07-06T10:51:51;20.80;99.90
28947;DHT22;16052;50.930;5.326;2022-07-06T10:54:18;20.90;99.90
28947;DHT22;16052;50.930;5.326;2022-07-06T10:56:50;20.90;99.90
28947;DHT22;16052;50.930;5.326;2022-07-06T10:59:21;21.10;99.90
28947;DHT22;16052;50.930;5.326;2022-07-06T11:04:40;21.50;99.90
28947;DHT22;16052;50.930;5.326;2022-07-06T11:07:14;21.80;99.90
28947;DHT22;16052;50.930;5.326;2022-07-06T11:09:40;22.00;99.90
28947;DHT22;16052;50.930;5.326;2022-07-06T11:12:15;22.20;26.70
28947;DHT22;16052;50.930;5.326;2022-07-06T11:14:44;22.20;18.20
28947;DHT22;16052;50.930;5.326;2022-07-06T11:17:11;22.00;1.00
28947;DHT22;16052;50.930;5.326;2022-07-06T11:19:37;21.60;99.90
28947;DHT22;16052;50.930;5.326;2022-07-06T11:22:08;21.60;99.90
28947;DHT22;16052;50.930;5.326;2022-07-06T11:24:38;21.70;1.00
28947;DHT22;16052;50.930;5.326;2022-07-06T11:27:05;21.80;1.00
28947;DHT22;16052;50.930;5.326;2022-07-06T11:29:33;21.70;1.00
28947;DHT22;16052;50.930;5.326;2022-07-06T11:32:05;21.80;99.90
28947;DHT22;16052;50.930;5.326;2022-07-06T11:34:33;21.80;99.90
28947;DHT22;16052;50.930;5.326;2022-07-06T11:37:05;21.90;78.60
28947;DHT22;16052;50.930;5.326;2022-07-06T11:39:35;21.90;99.90
28947;DHT22;16052;50.930;5.326;2022-07-06T11:42:01;21.70;95.90
28947;DHT22;16052;50.930;5.326;2022-07-06T11:44:30;21.80;99.90
28947;DHT22;16052;50.930;5.326;2022-07-06T11:46:57;21.90;99.90
28947;DHT22;16052;50.930;5.326;2022-07-06T11:49:26;22.00;99.90
28947;DHT22;16052;50.930;5.326;2022-07-06T11:51:55;22.20;99.90
28947;DHT22;16052;50.930;5.326;2022-07-06T11:54:22;22.40;40.20
28947;DHT22;16052;50.930;5.326;2022-07-06T11:56:51;22.30;1.00
28947;DHT22;16052;50.930;5.326;2022-07-06T11:59:32;22.00;1.00
28947;DHT22;16052;50.930;5.326;2022-07-06T12:04:31;22.00;95.20
28947;DHT22;16052;50.930;5.326;2022-07-06T12:07:14;22.20;99.90
28947;DHT22;16052;50.930;5.326;2022-07-06T12:09:44;22.50;99.90
28947;DHT22;16052;50.930;5.326;2022-07-06T12:12:11;22.70;1.00
28947;DHT22;16052;50.930;5.326;2022-07-06T12:14:39;22.70;1.00
28947;DHT22;16052;50.930;5.326;2022-07-06T12:17:08;22.70;1.00
28947;DHT22;16052;50.930;5.326;2022-07-06T12:19:35;22.50;1.00
28947;DHT22;16052;50.930;5.326;2022-07-06T12:22:01;22.50;17.30
28947;DHT22;16052;50.930;5.326;2022-07-06T12:24:31;22.50;4.30
28947;DHT22;16052;50.930;5.326;2022-07-06T12:26:58;22.60;1.00
28947;DHT22;16052;50.930;5.326;2022-07-06T12:29:34;22.40;1.00
28947;DHT22;16052;50.930;5.326;2022-07-06T12:32:00;22.30;1.00
28947;DHT22;16052;50.930;5.326;2022-07-06T12:34:29;22.00;63.20
28947;DHT22;16052;50.930;5.326;2022-07-06T12:37:05;22.00;42.50
28947;DHT22;16052;50.930;5.326;2022-07-06T12:39:31;21.90;99.90
28947;DHT22;16052;50.930;5.326;2022-07-06T12:42:02;21.90;99.90
28947;DHT22;16052;50.930;5.326;2022-07-06T12:44:28;21.90;99.90
28947;DHT22;16052;50.930;5.326;2022-07-06T12:47:05;21.90;99.90
28947;DHT22;16052;50.930;5.326;2022-07-06T12:49:32;21.70;99.90
28947;DHT22;16052;50.930;5.326;2022-07-06T12:52:00;21.60;46.70
28947;DHT22;16052;50.930;5.326;2022-07-06T12:54:47;21.60;64.80
28947;DHT22;16052;50.930;5.326;2022-07-06T12:57:23;21.70;47.30
28947;DHT22;16052;50.930;5.326;2022-07-06T13:02:24;21.90;49.80
28947;DHT22;16052;50.930;5.326;2022-07-06T13:05:01;21.80;70.30
28947;DHT22;16052;50.930;5.326;2022-07-06T13:07:29;21.80;93.90
28947;DHT22;16052;50.930;5.326;2022-07-06T13:10:02;21.90;99.90
28947;DHT22;16052;50.930;5.326;2022-07-06T13:12:29;21.50;7.70
28947;DHT22;16052;50.930;5.326;2022-07-06T13:14:54;21.60;35.30
28947;DHT22;16052;50.930;5.326;2022-07-06T13:17:20;21.60;46.50
28947;DHT22;16052;50.930;5.326;2022-07-06T13:19:46;21.70;99.90
28947;DHT22;16052;50.930;5.326;2022-07-06T13:22:12;21.90;85.50
28947;DHT22;16052;50.930;5.326;2022-07-06T13:24:38;21.90;99.90
28947;DHT22;16052;50.930;5.326;2022-07-06T13:27:04;21.90;55.70
28947;DHT22;16052;50.930;5.326;2022-07-06T13:29:30;21.70;99.90
28947;DHT22;16052;50.930;5.326;2022-07-06T13:31:57;21.50;99.90
28947;DHT22;16052;50.930;5.326;2022-07-06T13:34:22;21.40;99.90
28947;DHT22;16052;50.930;5.326;2022-07-06T13:36:49;21.50;99.90
28947;DHT22;16052;50.930;5.326;2022-07-06T13:39:18;21.70;99.90
28947;DHT22;16052;50.930;5.326;2022-07-06T13:41:44;21.70;99.90
28947;DHT22;16052;50.930;5.326;2022-07-06T13:44:10;21.70;99.90
28947;DHT22;16052;50.930;5.326;2022-07-06T13:46:37;21.90;99.90
28947;DHT22;16052;50.930;5.326;2022-07-06T13:49:04;22.00;99.90
28947;DHT22;16052;50.930;5.326;2022-07-06T13:51:30;22.30;90.60
28947;DHT22;16052;50.930;5.326;2022-07-06T13:53:59;22.30;1.00
28947;DHT22;16052;50.930;5.326;2022-07-06T13:56:26;22.30;19.40
28947;DHT22;16052;50.930;5.326;2022-07-06T13:58:51;22.20;19.30
28947;DHT22;16052;50.930;5.326;2022-07-06T14:01:17;22.00;64.80
28947;DHT22;16052;50.930;5.326;2022-07-06T14:03:43;21.90;99.90
28947;DHT22;16052;50.930;5.326;2022-07-06T14:06:09;22.00;73.70
28947;DHT22;16052;50.930;5.326;2022-07-06T14:08:36;21.90;2.30
28947;DHT22;16052;50.930;5.326;2022-07-06T14:11:03;21.90;24.70
28947;DHT22;16052;50.930;5.326;2022-07-06T14:13:29;21.80;79.80
28947;DHT22;16052;50.930;5.326;2022-07-06T14:15:55;21.80;51.00
28947;DHT22;16052;50.930;5.326;2022-07-06T14:18:21;21.90;67.30
28947;DHT22;16052;50.930;5.326;2022-07-06T14:20:48;22.00;40.40
28947;DHT22;16052;50.930;5.326;2022-07-06T14:23:14;22.00;1.00
28947;DHT22;16052;50.930;5.326;2022-07-06T14:25:41;22.00;1.00
28947;DHT22;16052;50.930;5.326;2022-07-06T14:28:07;22.00;26.50
28947;DHT22;16052;50.930;5.326;2022-07-06T14:30:34;22.10;1.00
28947;DHT22;16052;50.930;5.326;2022-07-06T14:33:06;22.20;1.00
28947;DHT22;16052;50.930;5.326;2022-07-06T14:35:43;22.20;1.00
28947;DHT22;16052;50.930;5.326;2022-07-06T14:38:09;22.50;54.50
28947;DHT22;16052;50.930;5.326;2022-07-06T14:40:35;22.80;1.00
28947;DHT22;16052;50.930;5.326;2022-07-06T14:43:02;22.60;1.00
28947;DHT22;16052;50.930;5.326;2022-07-06T14:45:28;22.70;1.00
28947;DHT22;16052;50.930;5.326;2022-07-06T14:47:54;22.80;1.00
28947;DHT22;16052;50.930;5.326;2022-07-06T14:50:20;22.70;1.00
28947;DHT22;16052;50.930;5.326;2022-07-06T14:52:49;22.70;1.00
28947;DHT22;16052;50.930;5.326;2022-07-06T14:55:15;22.60;1.00
28947;DHT22;16052;50.930;5.326;2022-07-06T14:57:41;22.60;1.00
28947;DHT22;16052;50.930;5.326;2022-07-06T15:00:07;22.70;52.90
28947;DHT22;16052;50.930;5.326;2022-07-06T15:02:33;22.70;1.00
28947;DHT22;16052;50.930;5.326;2022-07-06T15:04:59;22.60;1.00
28947;DHT22;16052;50.930;5.326;2022-07-06T15:07:26;22.40;1.00
28947;DHT22;16052;50.930;5.326;2022-07-06T15:09:51;22.40;1.00
28947;DHT22;16052;50.930;5.326;2022-07-06T15:12:17;22.40;1.00
28947;DHT22;16052;50.930;5.326;2022-07-06T15:14:43;22.60;1.00
28947;DHT22;16052;50.930;5.326;2022-07-06T15:17:08;22.70;1.00
28947;DHT22;16052;50.930;5.326;2022-07-06T15:19:34;22.80;1.00
28947;DHT22;16052;50.930;5.326;2022-07-06T15:22:01;23.00;1.00
28947;DHT22;16052;50.930;5.326;2022-07-06T15:24:27;22.80;1.00
28947;DHT22;16052;50.930;5.326;2022-07-06T15:26:53;22.70;1.00
28947;DHT22;16052;50.930;5.326;2022-07-06T15:29:19;22.60;1.00
28947;DHT22;16052;50.930;5.326;2022-07-06T15:31:45;22.70;1.00
28947;DHT22;16052;50.930;5.326;2022-07-06T15:34:10;22.80;1.00
28947;DHT22;16052;50.930;5.326;2022-07-06T15:36:36;22.70;1.00
28947;DHT22;16052;50.930;5.326;2022-07-06T15:39:03;22.60;1.00
28947;DHT22;16052;50.930;5.326;2022-07-06T15:41:28;22.80;1.00
28947;DHT22;16052;50.930;5.326;2022-07-06T15:43:54;23.10;1.00
28947;DHT22;16052;50.930;5.326;2022-07-06T15:46:20;23.20;1.00
28947;DHT22;16052;50.930;5.326;2022-07-06T15:48:48;23.30;1.00